Terminal Aerodrome Forecast
Issued by NWS

Home | Current Version | Previous Version | Text Only | Print | Product List | Glossary On
Versions: 1 2 3 4 5 6 7 8 9 10 11 12 13 14
000
FTUS44 KEPZ 211800 CCA
TAFLRU
TAF COR
KLRU 211828Z 2118/2218 24007KT P6SM FEW250
     FM212000 24010KT P6SM SCT060 SCT250
     FM220000 24010KT P6SM VCTS SCT060CB SCT250
      TEMPO 2203/2207 6SM -TSRA SCT030 BKN060CB=

USA.gov is the U.S. government's official web portal to all federal, state and local government web resources and services.